Time;durP1;ratioP1;P1;durP2;ratioP2;P2;SDS_P1;SDS_P2;PMS_P1;PMS_P2;Temp;Humidity;BMP_temperature;BMP_pressure;BME280_temperature;BME280_humidity;BME280_pressure;Samples;Min_cycle;Max_cycle;Signal;HPM_P1;HPM_P2
2024/01/18 00:00:31;;;;;;;;;;;;;;;9.34;100.00;92463.00;5067255;28;19924;-72
2024/01/18 00:02:58;;;;;;;;;;;;;;;9.33;100.00;92452.97;5067729;28;19924;-72
2024/01/18 00:05:26;;;;;;;;;;;;;;;9.34;100.00;92447.63;5068118;28;19931;-72
2024/01/18 00:07:53;;;;;;;;;;;;;;;9.30;100.00;92449.06;5067664;28;19924;-72
2024/01/18 00:10:26;;;;;;;;;;;;;;;9.35;100.00;92449.16;5064675;28;19926;-72
2024/01/18 00:12:53;;;;;;;;;;;;;;;9.25;100.00;92446.38;5065881;28;20014;-72
2024/01/18 00:15:19;;;;;;;;;;;;;;;9.34;100.00;92446.81;5066350;28;19932;-72
2024/01/18 00:17:46;;;;;;;;;;;;;;;9.38;100.00;92447.94;5064201;28;19935;-72
2024/01/18 00:20:13;;;;;;;;;;;;;;;9.37;100.00;92441.28;5065348;28;20308;-72
2024/01/18 00:22:41;;;;;;;;;;;;;;;9.39;100.00;92443.63;5064308;28;19931;-72
2024/01/18 00:25:08;;;;;;;;;;;;;;;9.35;100.00;92440.69;5062094;28;19929;-72
2024/01/18 00:27:34;;;;;;;;;;;;;;;9.36;100.00;92448.16;5066565;28;19921;-72
2024/01/18 00:30:01;;;;;;;;;;;;;;;9.39;100.00;92439.25;5064354;28;19924;-72
2024/01/18 00:32:28;;;;;;;;;;;;;;;9.37;100.00;92438.69;5068144;28;19946;-72
2024/01/18 00:34:54;;;;;;;;;;;;;;;9.41;100.00;92444.97;5067757;28;20244;-72
2024/01/18 00:37:21;;;;;;;;;;;;;;;9.41;100.00;92444.16;5066066;28;19924;-72
2024/01/18 00:39:49;;;;;;;;;;;;;;;9.42;100.00;92438.03;5066839;28;19975;-72
2024/01/18 00:42:16;;;;;;;;;;;;;;;9.48;100.00;92426.88;5061422;28;19946;-72
2024/01/18 00:44:42;;;;;;;;;;;;;;;9.38;100.00;92430.00;5062258;28;19924;-72
2024/01/18 00:47:09;;;;;;;;;;;;;;;9.35;100.00;92427.88;5063634;28;19928;-72
2024/01/18 00:49:36;;;;;;;;;;;;;;;9.21;100.00;92422.97;5059621;28;20435;-72
2024/01/18 00:52:04;;;;;;;;;;;;;;;9.28;100.00;92422.09;5068076;28;20005;-72
2024/01/18 00:54:30;;;;;;;;;;;;;;;9.51;100.00;92423.91;5064851;28;19924;-73
2024/01/18 00:56:58;;;;;;;;;;;;;;;9.54;100.00;92418.31;5064794;28;19930;-73
2024/01/18 00:59:25;;;;;;;;;;;;;;;9.50;100.00;92412.09;5065453;28;20402;-72
2024/01/18 01:01:51;;;;;;;;;;;;;;;9.48;100.00;92401.25;5067304;28;19927;-73
2024/01/18 01:04:18;;;;;;;;;;;;;;;9.38;100.00;92404.38;5066226;28;19924;-72
2024/01/18 01:06:45;;;;;;;;;;;;;;;9.47;100.00;92397.13;5067898;28;19924;-74
2024/01/18 01:09:11;;;;;;;;;;;;;;;9.39;100.00;92382.09;5062059;28;19926;-73
2024/01/18 01:11:38;;;;;;;;;;;;;;;9.45;100.00;92381.22;5064677;28;19930;-73
2024/01/18 01:14:06;;;;;;;;;;;;;;;9.42;100.00;92371.38;5063775;28;19924;-73
2024/01/18 01:16:33;;;;;;;;;;;;;;;9.31;100.00;92362.72;5065670;28;19929;-72
2024/01/18 01:18:59;;;;;;;;;;;;;;;9.22;100.00;92357.13;5064787;28;19924;-72
2024/01/18 01:21:26;;;;;;;;;;;;;;;9.30;100.00;92350.91;5067900;28;20268;-72
2024/01/18 01:23:54;;;;;;;;;;;;;;;9.25;100.00;92356.66;5064225;28;19925;-72
2024/01/18 01:26:20;;;;;;;;;;;;;;;9.30;100.00;92359.34;5063514;28;19920;-74
2024/01/18 01:28:49;;;;;;;;;;;;;;;9.33;100.00;92358.13;5067552;28;20669;-72
2024/01/18 01:31:17;;;;;;;;;;;;;;;9.32;100.00;92361.69;5067757;28;19924;-71
2024/01/18 01:33:43;;;;;;;;;;;;;;;9.29;100.00;92355.22;5060701;28;19929;-72
2024/01/18 01:36:10;;;;;;;;;;;;;;;9.27;100.00;92357.25;5066470;28;19920;-72
2024/01/18 01:38:37;;;;;;;;;;;;;;;9.30;100.00;92356.03;5067515;28;19924;-72
2024/01/18 01:41:04;;;;;;;;;;;;;;;9.27;100.00;92354.69;5064915;28;20326;-72
2024/01/18 01:43:31;;;;;;;;;;;;;;;9.26;100.00;92355.66;5065524;28;19931;-72
2024/01/18 01:45:58;;;;;;;;;;;;;;;9.27;100.00;92347.00;5058516;28;20527;-72
2024/01/18 01:48:26;;;;;;;;;;;;;;;9.29;100.00;92346.75;5066392;28;19930;-71
2024/01/18 01:50:53;;;;;;;;;;;;;;;9.36;100.00;92350.78;5062524;28;19928;-71
2024/01/18 01:53:21;;;;;;;;;;;;;;;9.36;100.00;92345.66;5066634;28;19935;-71
2024/01/18 01:55:48;;;;;;;;;;;;;;;9.35;100.00;92338.16;5066985;28;19938;-71
2024/01/18 01:58:17;;;;;;;;;;;;;;;9.33;100.00;92338.41;5062230;28;19950;-71
2024/01/18 02:00:44;;;;;;;;;;;;;;;9.26;100.00;92334.41;5066899;28;19920;-71
2024/01/18 02:03:11;;;;;;;;;;;;;;;9.14;100.00;92332.63;5061350;28;19924;-72
2024/01/18 02:05:39;;;;;;;;;;;;;;;9.21;100.00;92320.47;5064855;28;19920;-71
2024/01/18 02:08:06;;;;;;;;;;;;;;;9.14;100.00;92307.00;5065249;28;19926;-71
2024/01/18 02:10:33;;;;;;;;;;;;;;;8.97;100.00;92312.00;5066207;28;20030;-72
2024/01/18 02:13:00;;;;;;;;;;;;;;;8.94;100.00;92310.66;5062481;28;20377;-71
2024/01/18 02:15:27;;;;;;;;;;;;;;;8.98;100.00;92316.09;5063707;28;19920;-71
2024/01/18 02:17:54;;;;;;;;;;;;;;;8.99;100.00;92312.56;5063933;28;19925;-71
2024/01/18 02:20:21;;;;;;;;;;;;;;;8.93;100.00;92319.34;5065835;28;19920;-72
2024/01/18 02:22:49;;;;;;;;;;;;;;;8.93;100.00;92308.31;5066299;28;19924;-71
2024/01/18 02:25:22;;;;;;;;;;;;;;;8.92;100.00;92312.66;5060411;28;20433;-72
2024/01/18 02:27:49;;;;;;;;;;;;;;;9.03;100.00;92312.91;5064486;28;20385;-71
2024/01/18 02:30:15;;;;;;;;;;;;;;;9.05;100.00;92305.75;5066384;28;19924;-71
2024/01/18 02:32:42;;;;;;;;;;;;;;;9.13;100.00;92302.09;5065610;28;19920;-71
2024/01/18 02:35:09;;;;;;;;;;;;;;;9.14;100.00;92299.31;5059613;28;20016;-71
2024/01/18 02:37:36;;;;;;;;;;;;;;;9.20;100.00;92305.31;5063421;28;19939;-72
2024/01/18 02:40:03;;;;;;;;;;;;;;;9.19;100.00;92307.09;5064427;28;20405;-72
2024/01/18 02:42:31;;;;;;;;;;;;;;;9.29;100.00;92310.88;5061447;28;20332;-72
2024/01/18 02:44:57;;;;;;;;;;;;;;;9.36;100.00;92303.88;5060801;28;20006;-72
2024/01/18 02:47:25;;;;;;;;;;;;;;;9.38;100.00;92304.41;5058644;28;19920;-72
2024/01/18 02:49:51;;;;;;;;;;;;;;;9.42;100.00;92297.06;5064059;28;19947;-72
2024/01/18 02:52:18;;;;;;;;;;;;;;;9.52;100.00;92306.72;5063417;28;20404;-72
2024/01/18 02:54:45;;;;;;;;;;;;;;;9.48;100.00;92298.72;5070398;28;19920;-72
2024/01/18 02:57:11;;;;;;;;;;;;;;;9.55;100.00;92301.16;5070385;28;20457;-72
2024/01/18 02:59:40;;;;;;;;;;;;;;;9.66;100.00;92304.69;5064644;28;19920;-72
2024/01/18 03:02:06;;;;;;;;;;;;;;;9.62;100.00;92302.59;5069428;28;19931;-72
2024/01/18 03:04:33;;;;;;;;;;;;;;;9.54;100.00;92297.06;5065767;28;20382;-72
2024/01/18 03:06:59;;;;;;;;;;;;;;;9.51;100.00;92300.06;5068028;28;19924;-72
2024/01/18 03:09:26;;;;;;;;;;;;;;;9.43;100.00;92288.34;5070063;28;20002;-72
2024/01/18 03:11:53;;;;;;;;;;;;;;;9.42;100.00;92287.59;5067707;28;19951;-72
2024/01/18 03:14:21;;;;;;;;;;;;;;;9.44;100.00;92289.94;5065891;28;19935;-72
2024/01/18 03:16:49;;;;;;;;;;;;;;;9.52;100.00;92291.34;5064225;28;19927;-71
2024/01/18 03:19:15;;;;;;;;;;;;;;;9.46;100.00;92288.72;5064670;28;20305;-72
2024/01/18 03:21:42;;;;;;;;;;;;;;;9.46;100.00;92275.09;5065558;28;19931;-72
2024/01/18 03:24:09;;;;;;;;;;;;;;;9.40;100.00;92276.75;5064054;28;19920;-71
2024/01/18 03:26:35;;;;;;;;;;;;;;;9.37;100.00;92266.97;5067591;28;19924;-71
2024/01/18 03:29:02;;;;;;;;;;;;;;;9.37;100.00;92266.97;5066200;28;20374;-71
2024/01/18 03:31:28;;;;;;;;;;;;;;;9.25;100.00;92264.41;5067773;28;19924;-71
2024/01/18 03:33:56;;;;;;;;;;;;;;;9.25;100.00;92259.28;5068272;28;19931;-72
2024/01/18 03:36:23;;;;;;;;;;;;;;;9.23;100.00;92245.94;5069867;28;19920;-72
2024/01/18 03:38:50;;;;;;;;;;;;;;;9.12;100.00;92242.38;5069920;28;19926;-72
2024/01/18 03:41:16;;;;;;;;;;;;;;;9.17;100.00;92239.16;5064811;28;19921;-72
2024/01/18 03:43:43;;;;;;;;;;;;;;;9.19;100.00;92235.38;5063609;28;19944;-72
2024/01/18 03:46:13;;;;;;;;;;;;;;;9.28;100.00;92251.16;5064535;28;19925;-72
2024/01/18 03:48:39;;;;;;;;;;;;;;;9.33;100.00;92240.25;5068486;28;19924;-72
2024/01/18 03:51:08;;;;;;;;;;;;;;;9.39;100.00;92246.25;5063203;28;19928;-72
2024/01/18 03:53:36;;;;;;;;;;;;;;;9.38;100.00;92244.69;5069283;28;20042;-72
2024/01/18 03:56:02;;;;;;;;;;;;;;;9.43;100.00;92245.56;5063807;28;19926;-72
2024/01/18 03:58:29;;;;;;;;;;;;;;;9.47;100.00;92251.81;5069334;28;19930;-71
2024/01/18 04:01:05;;;;;;;;;;;;;;;9.45;100.00;92248.69;5059095;28;19931;-71
2024/01/18 04:03:32;;;;;;;;;;;;;;;9.53;100.00;92251.91;5064408;28;19920;-71
2024/01/18 04:06:00;;;;;;;;;;;;;;;9.52;100.00;92237.50;5062057;28;19931;-71
2024/01/18 04:08:30;;;;;;;;;;;;;;;9.44;100.00;92249.69;5066163;28;19970;-71
2024/01/18 04:10:57;;;;;;;;;;;;;;;9.41;100.00;92252.72;5062440;28;19967;-71
2024/01/18 04:13:25;;;;;;;;;;;;;;;9.45;100.00;92246.13;5064993;28;19924;-71
2024/01/18 04:15:52;;;;;;;;;;;;;;;9.45;100.00;92246.13;5063731;28;20481;-71
2024/01/18 04:18:19;;;;;;;;;;;;;;;9.43;100.00;92244.78;5067202;28;20378;-71
2024/01/18 04:20:45;;;;;;;;;;;;;;;9.42;100.00;92253.47;5062993;28;20417;-71
2024/01/18 04:23:12;;;;;;;;;;;;;;;9.46;100.00;92249.47;5068602;28;19930;-71
2024/01/18 04:25:40;;;;;;;;;;;;;;;9.41;100.00;92264.75;5068115;28;19994;-71
2024/01/18 04:28:07;;;;;;;;;;;;;;;9.40;100.00;92253.69;5068982;28;20400;-71
2024/01/18 04:30:33;;;;;;;;;;;;;;;9.45;100.00;92260.72;5063731;28;20523;-71
2024/01/18 04:33:00;;;;;;;;;;;;;;;9.40;100.00;92263.94;5067733;28;20390;-71
2024/01/18 04:35:27;;;;;;;;;;;;;;;9.51;100.00;92259.03;5068423;28;19931;-71
2024/01/18 04:37:53;;;;;;;;;;;;;;;9.45;100.00;92253.81;5068206;28;19953;-71
2024/01/18 04:40:20;;;;;;;;;;;;;;;9.49;100.00;92256.69;5061355;28;19966;-71
2024/01/18 04:42:48;;;;;;;;;;;;;;;9.59;100.00;92256.91;5066535;28;20016;-71
2024/01/18 04:45:15;;;;;;;;;;;;;;;9.61;100.00;92252.34;5064967;28;19931;-71
2024/01/18 04:47:42;;;;;;;;;;;;;;;9.63;100.00;92264.94;5055352;28;19924;-71
2024/01/18 04:50:09;;;;;;;;;;;;;;;9.64;100.00;92253.66;5068344;28;19927;-71
2024/01/18 04:52:36;;;;;;;;;;;;;;;9.66;100.00;92258.56;5065996;28;19938;-71
2024/01/18 04:55:04;;;;;;;;;;;;;;;9.72;100.00;92255.09;5063988;28;19921;-71
2024/01/18 04:57:31;;;;;;;;;;;;;;;9.74;100.00;92255.66;5068299;28;19929;-71
2024/01/18 04:59:59;;;;;;;;;;;;;;;9.61;100.00;92257.47;5065518;28;19920;-71
2024/01/18 05:02:26;;;;;;;;;;;;;;;9.66;100.00;92256.78;5068174;28;20285;-71
2024/01/18 05:04:52;;;;;;;;;;;;;;;9.70;100.00;92267.34;5062487;28;19920;-71
2024/01/18 05:07:19;;;;;;;;;;;;;;;9.73;100.00;92256.66;5066419;28;19920;-71
2024/01/18 05:09:46;;;;;;;;;;;;;;;9.69;100.00;92245.28;5067617;28;20318;-71
2024/01/18 05:12:13;;;;;;;;;;;;;;;9.74;100.00;92256.44;5068246;28;19962;-71
2024/01/18 05:14:39;;;;;;;;;;;;;;;9.82;100.00;92264.75;5067599;28;19927;-71
2024/01/18 05:17:10;;;;;;;;;;;;;;;9.84;100.00;92266.09;5057479;28;19920;-71
2024/01/18 05:19:37;;;;;;;;;;;;;;;9.84;100.00;92265.31;5064578;28;19927;-71
2024/01/18 05:22:04;;;;;;;;;;;;;;;9.87;100.00;92257.94;5065089;28;20225;-72
2024/01/18 05:24:30;;;;;;;;;;;;;;;9.85;100.00;92267.66;5063990;28;19924;-72
2024/01/18 05:26:57;;;;;;;;;;;;;;;9.87;100.00;92267.44;5063253;28;19971;-71
2024/01/18 05:29:24;;;;;;;;;;;;;;;9.73;100.00;92254.84;5067962;28;19920;-71
2024/01/18 05:31:51;;;;;;;;;;;;;;;9.72;100.00;92252.53;5067268;28;19927;-71
2024/01/18 05:34:19;;;;;;;;;;;;;;;9.78;100.00;92248.28;5067316;28;20293;-71
2024/01/18 05:36:47;;;;;;;;;;;;;;;9.71;100.00;92253.53;5062126;28;20282;-71
2024/01/18 05:39:14;;;;;;;;;;;;;;;9.66;100.00;92261.91;5063090;28;19921;-71
2024/01/18 05:41:41;;;;;;;;;;;;;;;9.78;100.00;92274.72;5066944;28;19963;-72
2024/01/18 05:44:07;;;;;;;;;;;;;;;9.78;100.00;92269.56;5065439;28;20298;-72
2024/01/18 05:46:34;;;;;;;;;;;;;;;9.86;100.00;92271.75;5063053;28;20459;-72
2024/01/18 05:49:02;;;;;;;;;;;;;;;9.87;100.00;92278.44;5062104;28;19931;-72
2024/01/18 05:51:30;;;;;;;;;;;;;;;9.93;100.00;92275.97;5065769;28;19932;-72
2024/01/18 05:53:57;;;;;;;;;;;;;;;9.93;100.00;92275.97;5063755;28;19927;-72
2024/01/18 05:56:23;;;;;;;;;;;;;;;9.94;100.00;92269.84;5062045;28;20497;-71
2024/01/18 05:58:50;;;;;;;;;;;;;;;9.94;100.00;92278.31;5064001;28;19920;-72
2024/01/18 06:01:17;;;;;;;;;;;;;;;9.91;100.00;92278.00;5062414;28;19924;-72
2024/01/18 06:03:44;;;;;;;;;;;;;;;10.00;100.00;92286.91;5064297;28;19956;-72
2024/01/18 06:06:11;;;;;;;;;;;;;;;10.08;100.00;92290.88;5066742;28;19924;-72
2024/01/18 06:08:39;;;;;;;;;;;;;;;10.03;100.00;92289.78;5065154;28;20297;-72
2024/01/18 06:11:05;;;;;;;;;;;;;;;10.02;100.00;92292.56;5063223;28;20007;-72
2024/01/18 06:13:32;;;;;;;;;;;;;;;10.11;100.00;92290.44;5067185;28;19924;-72
2024/01/18 06:15:59;;;;;;;;;;;;;;;10.10;100.00;92297.34;5059884;28;19993;-72
2024/01/18 06:18:25;;;;;;;;;;;;;;;10.05;100.00;92294.69;5064226;28;19931;-72
2024/01/18 06:20:52;;;;;;;;;;;;;;;10.01;100.00;92298.72;5067429;28;19920;-72
2024/01/18 06:23:19;;;;;;;;;;;;;;;10.09;100.00;92292.44;5064308;28;19924;-72
2024/01/18 06:25:47;;;;;;;;;;;;;;;10.08;100.00;92280.59;5063001;28;19928;-71
2024/01/18 06:28:14;;;;;;;;;;;;;;;10.10;100.00;92283.75;5066173;28;19927;-71
2024/01/18 06:30:43;;;;;;;;;;;;;;;10.01;100.00;92273.84;5066600;28;19924;-72
2024/01/18 06:33:10;;;;;;;;;;;;;;;10.13;100.00;92276.34;5063795;28;20002;-72
2024/01/18 06:35:37;;;;;;;;;;;;;;;10.15;100.00;92268.44;5063314;28;19924;-72
2024/01/18 06:38:03;;;;;;;;;;;;;;;10.24;100.00;92267.03;5065148;28;19927;-72
2024/01/18 06:40:30;;;;;;;;;;;;;;;10.27;100.00;92279.44;5064708;28;20309;-71
2024/01/18 06:42:58;;;;;;;;;;;;;;;10.27;100.00;92282.00;5066582;28;19932;-72
2024/01/18 06:45:25;;;;;;;;;;;;;;;10.33;100.00;92275.16;5061571;28;19931;-72
2024/01/18 06:47:51;;;;;;;;;;;;;;;10.37;100.00;92281.38;5062735;28;20035;-71
2024/01/18 06:50:18;;;;;;;;;;;;;;;10.38;100.00;92275.22;5065987;28;19920;-71
2024/01/18 06:52:45;;;;;;;;;;;;;;;10.27;100.00;92279.44;5064678;28;19924;-72
2024/01/18 06:55:11;;;;;;;;;;;;;;;10.37;100.00;92271.09;5063415;28;19920;-72
2024/01/18 06:57:39;;;;;;;;;;;;;;;10.38;100.00;92272.66;5061937;28;19924;-72
2024/01/18 07:00:07;;;;;;;;;;;;;;;10.41;100.00;92266.28;5063665;28;19920;-71
2024/01/18 07:02:34;;;;;;;;;;;;;;;10.34;100.00;92248.50;5060608;28;19927;-72
2024/01/18 07:05:01;;;;;;;;;;;;;;;10.33;100.00;92248.72;5065942;28;19934;-72
2024/01/18 07:07:28;;;;;;;;;;;;;;;10.41;100.00;92245.75;5065954;28;19924;-72
2024/01/18 07:09:55;;;;;;;;;;;;;;;10.35;100.00;92232.06;5060558;28;20385;-72
2024/01/18 07:12:21;;;;;;;;;;;;;;;10.51;100.00;92227.97;5065488;28;19944;-72
2024/01/18 07:14:48;;;;;;;;;;;;;;;10.50;100.00;92217.94;5066890;28;19920;-72
2024/01/18 07:17:16;;;;;;;;;;;;;;;10.41;100.00;92195.19;5059770;28;19947;-72
2024/01/18 07:19:43;;;;;;;;;;;;;;;10.42;100.00;92181.34;5054710;28;19954;-72
2024/01/18 07:22:10;;;;;;;;;;;;;;;10.28;100.00;92173.19;5052065;28;19980;-72
2024/01/18 07:24:36;;;;;;;;;;;;;;;10.09;100.00;92171.84;5050201;28;20570;-71
2024/01/18 07:27:09;;;;;;;;;;;;;;;10.17;100.00;92158.63;5048836;28;19934;-72
2024/01/18 07:29:35;;;;;;;;;;;;;;;10.26;100.00;92149.53;5050072;28;20107;-72
2024/01/18 07:32:02;;;;;;;;;;;;;;;10.19;100.00;92156.63;5050223;28;20408;-71
2024/01/18 07:34:31;;;;;;;;;;;;;;;10.22;100.00;92152.78;5054785;28;19931;-71
2024/01/18 07:36:58;;;;;;;;;;;;;;;10.23;100.00;92160.25;5059571;28;19935;-72
2024/01/18 07:39:25;;;;;;;;;;;;;;;10.28;100.00;92155.22;5055808;28;20297;-72
2024/01/18 07:41:51;;;;;;;;;;;;;;;10.38;100.00;92148.69;5055526;28;20382;-72
2024/01/18 07:44:18;;;;;;;;;;;;;;;10.39;100.00;92148.44;5054644;28;20488;-72
2024/01/18 07:46:44;;;;;;;;;;;;;;;10.40;100.00;92151.78;5054137;28;19924;-72
2024/01/18 07:49:11;;;;;;;;;;;;;;;10.45;100.00;92146.00;5051753;28;19921;-72
2024/01/18 07:51:39;;;;;;;;;;;;;;;10.47;100.00;92154.22;5054020;28;20309;-71
2024/01/18 07:54:06;;;;;;;;;;;;;;;10.51;100.00;92148.38;5064489;28;19927;-72
2024/01/18 07:56:33;;;;;;;;;;;;;;;10.50;100.00;92146.81;5051525;28;19924;-72
2024/01/18 07:58:59;;;;;;;;;;;;;;;10.49;100.00;92134.22;5058359;28;19924;-71
2024/01/18 08:01:26;;;;;;;;;;;;;;;10.52;100.00;92124.25;5051761;28;19927;-72
2024/01/18 08:03:53;;;;;;;;;;;;;;;10.53;100.00;92123.25;5052720;28;19931;-72
2024/01/18 08:06:19;;;;;;;;;;;;;;;10.51;100.00;92127.84;5059067;28;19927;-72
2024/01/18 08:08:47;;;;;;;;;;;;;;;10.54;100.00;92129.16;5051265;28;19925;-71
2024/01/18 08:11:14;;;;;;;;;;;;;;;10.51;100.00;92135.53;5053619;28;19924;-72
2024/01/18 08:13:41;;;;;;;;;;;;;;;10.60;100.00;92125.66;5052740;28;19920;-71
2024/01/18 08:16:08;;;;;;;;;;;;;;;10.67;100.00;92128.06;5053338;28;19925;-71
2024/01/18 08:18:35;;;;;;;;;;;;;;;10.76;100.00;92134.34;5052579;28;19927;-71
2024/01/18 08:21:01;;;;;;;;;;;;;;;10.75;100.00;92129.44;5055726;28;19932;-72
2024/01/18 08:23:28;;;;;;;;;;;;;;;10.76;100.00;92121.50;5050233;28;20397;-71
2024/01/18 08:25:56;;;;;;;;;;;;;;;10.80;100.00;92119.22;5055938;28;19924;-72
2024/01/18 08:28:23;;;;;;;;;;;;;;;10.90;100.00;92124.50;5051514;28;20386;-72
2024/01/18 08:30:50;;;;;;;;;;;;;;;10.95;100.00;92123.78;5050931;28;19926;-72
2024/01/18 08:33:18;;;;;;;;;;;;;;;10.97;100.00;92119.16;5051825;28;19920;-72
2024/01/18 08:35:45;;;;;;;;;;;;;;;10.91;100.00;92115.78;5054434;28;19925;-72
2024/01/18 08:38:11;;;;;;;;;;;;;;;10.98;100.00;92110.47;5049391;28;19927;-72
2024/01/18 08:40:38;;;;;;;;;;;;;;;10.99;100.00;92109.44;5054180;28;19924;-72
2024/01/18 08:43:06;;;;;;;;;;;;;;;11.08;100.00;92127.78;5051403;28;19921;-72
2024/01/18 08:45:33;;;;;;;;;;;;;;;11.13;100.00;92102.16;5056940;28;19928;-72
2024/01/18 08:48:00;;;;;;;;;;;;;;;11.24;100.00;92108.16;5051489;28;19968;-72
2024/01/18 08:50:27;;;;;;;;;;;;;;;11.17;100.00;92108.38;5049782;28;19924;-72
2024/01/18 08:52:54;;;;;;;;;;;;;;;11.42;100.00;92103.72;5061687;28;19924;-72
2024/01/18 08:55:20;;;;;;;;;;;;;;;11.48;100.00;92107.91;5053206;28;19921;-72
2024/01/18 08:57:49;;;;;;;;;;;;;;;11.52;100.00;92111.53;5050598;28;19924;-72
2024/01/18 09:00:18;;;;;;;;;;;;;;;11.40;100.00;92106.56;5061969;28;20429;-72
2024/01/18 09:02:45;;;;;;;;;;;;;;;11.55;100.00;92102.56;5050076;28;19925;-72
2024/01/18 09:05:11;;;;;;;;;;;;;;;11.68;100.00;92103.97;5056294;28;20472;-72
2024/01/18 09:07:38;;;;;;;;;;;;;;;11.71;100.00;92103.50;5052118;28;19930;-72
2024/01/18 09:10:06;;;;;;;;;;;;;;;11.75;100.00;92109.69;5050676;28;20736;-72
2024/01/18 09:12:33;;;;;;;;;;;;;;;11.87;100.00;92112.91;5052315;28;20373;-72
2024/01/18 09:14:59;;;;;;;;;;;;;;;11.70;100.00;92081.34;5052098;28;19924;-72
2024/01/18 09:17:28;;;;;;;;;;;;;;;11.98;100.00;92094.97;5051131;28;20787;-72
2024/01/18 09:19:54;;;;;;;;;;;;;;;12.13;100.00;92092.53;5050247;28;20325;-72
2024/01/18 09:22:21;;;;;;;;;;;;;;;12.15;100.00;92082.00;5049733;28;20398;-72
2024/01/18 09:24:48;;;;;;;;;;;;;;;12.33;100.00;92085.97;5053880;28;20040;-72
2024/01/18 09:27:14;;;;;;;;;;;;;;;12.41;100.00;92079.59;5051298;28;20535;-71
2024/01/18 09:29:41;;;;;;;;;;;;;;;12.59;100.00;92085.34;5051451;28;19931;-72
2024/01/18 09:32:07;;;;;;;;;;;;;;;12.65;100.00;92074.81;5050744;28;19925;-72
2024/01/18 09:34:36;;;;;;;;;;;;;;;12.76;100.00;92059.41;5051452;28;19931;-72
2024/01/18 09:37:03;;;;;;;;;;;;;;;12.99;100.00;92047.13;5050444;28;19924;-72
2024/01/18 09:39:29;;;;;;;;;;;;;;;13.05;100.00;92046.88;5050317;28;20763;-73
2024/01/18 09:41:56;;;;;;;;;;;;;;;13.05;100.00;92034.00;5050158;28;19929;-71
2024/01/18 09:44:25;;;;;;;;;;;;;;;13.16;100.00;92031.44;5052719;28;20268;-72
2024/01/18 09:46:53;;;;;;;;;;;;;;;13.25;100.00;92014.47;5054811;28;19931;-72
2024/01/18 09:49:19;;;;;;;;;;;;;;;13.38;100.00;92023.47;5050457;28;20803;-72
2024/01/18 09:51:48;;;;;;;;;;;;;;;13.56;100.00;92013.75;5050915;28;19925;-72
2024/01/18 09:54:14;;;;;;;;;;;;;;;13.62;99.47;92007.56;5049826;28;19925;-71
2024/01/18 09:56:43;;;;;;;;;;;;;;;13.54;99.30;92000.31;5052969;28;20396;-72
2024/01/18 09:59:11;;;;;;;;;;;;;;;13.60;98.20;92002.66;5050613;28;19924;-72
2024/01/18 10:01:38;;;;;;;;;;;;;;;13.66;99.64;91989.75;5052366;28;19930;-72
2024/01/18 10:04:04;;;;;;;;;;;;;;;13.79;99.53;91993.63;5050027;28;19925;-72
2024/01/18 10:06:31;;;;;;;;;;;;;;;13.69;98.81;91994.38;5052124;28;19954;-72
2024/01/18 10:08:59;;;;;;;;;;;;;;;13.67;99.01;91986.13;5050415;28;19931;-71
2024/01/18 10:11:26;;;;;;;;;;;;;;;13.71;98.67;91977.59;5050596;28;19925;-71
2024/01/18 10:13:53;;;;;;;;;;;;;;;13.47;99.07;91954.16;5050647;28;20390;-72
2024/01/18 10:16:27;;;;;;;;;;;;;;;13.46;99.73;91950.78;5049499;28;20388;-72
2024/01/18 10:18:53;;;;;;;;;;;;;;;13.41;99.32;91949.97;5050886;28;20378;-72
2024/01/18 10:21:21;;;;;;;;;;;;;;;13.40;100.00;91949.22;5048895;28;19930;-72
2024/01/18 10:23:48;;;;;;;;;;;;;;;13.42;100.00;91952.31;5055777;28;20011;-72
2024/01/18 10:26:16;;;;;;;;;;;;;;;13.42;100.00;91951.56;5051134;28;19925;-74
2024/01/18 10:28:43;;;;;;;;;;;;;;;13.57;100.00;91955.97;5049594;28;20011;-74
2024/01/18 10:31:10;;;;;;;;;;;;;;;13.66;100.00;91949.22;5049224;28;19939;-73
2024/01/18 10:33:36;;;;;;;;;;;;;;;13.83;98.31;91928.31;5053224;28;19925;-73
2024/01/18 10:36:03;;;;;;;;;;;;;;;14.06;98.00;91943.50;5059842;28;20283;-73
2024/01/18 10:38:30;;;;;;;;;;;;;;;14.11;97.38;91946.06;5050906;28;19924;-73
2024/01/18 10:40:59;;;;;;;;;;;;;;;14.11;96.47;91927.97;5049956;28;19924;-73
2024/01/18 10:43:29;;;;;;;;;;;;;;;14.09;96.95;91930.84;5049232;28;20609;-72
2024/01/18 10:45:56;;;;;;;;;;;;;;;14.09;96.18;91927.47;5051082;28;20469;-74
2024/01/18 10:48:22;;;;;;;;;;;;;;;14.13;96.57;91911.19;5049375;28;20030;-73
2024/01/18 10:50:51;;;;;;;;;;;;;;;14.08;96.62;91921.56;5048839;28;19925;-73
2024/01/18 10:53:17;;;;;;;;;;;;;;;14.10;96.69;91898.81;5052012;28;19986;-73
2024/01/18 10:55:44;;;;;;;;;;;;;;;14.11;95.71;91912.47;5049023;28;19924;-73
2024/01/18 10:58:11;;;;;;;;;;;;;;;14.29;96.33;91911.91;5051437;28;19924;-73
2024/01/18 11:00:39;;;;;;;;;;;;;;;14.40;94.66;91899.72;5055038;28;19928;-73
2024/01/18 11:03:06;;;;;;;;;;;;;;;14.50;95.49;91890.38;5052867;28;20383;-73
2024/01/18 11:05:33;;;;;;;;;;;;;;;14.40;95.20;91862.81;5055054;28;19924;-73
2024/01/18 11:08:00;;;;;;;;;;;;;;;14.39;95.31;91858.66;5049006;28;19924;-73
2024/01/18 11:10:27;;;;;;;;;;;;;;;14.28;95.32;91848.41;5051161;28;20041;-73
2024/01/18 11:12:53;;;;;;;;;;;;;;;14.07;96.62;91837.38;5050378;28;20019;-73
2024/01/18 11:15:20;;;;;;;;;;;;;;;13.94;96.56;91822.47;5055592;28;19970;-73
2024/01/18 11:17:50;;;;;;;;;;;;;;;13.95;96.10;91832.53;5052870;28;19924;-73
2024/01/18 11:20:17;;;;;;;;;;;;;;;14.11;96.85;91851.28;5057120;28;20178;-73
2024/01/18 11:22:45;;;;;;;;;;;;;;;14.22;96.48;91853.84;5052034;28;20058;-72
2024/01/18 11:25:13;;;;;;;;;;;;;;;14.27;95.89;91858.97;5053977;28;19925;-73
2024/01/18 11:27:40;;;;;;;;;;;;;;;14.38;95.51;91863.06;5055318;28;20081;-73
2024/01/18 11:30:09;;;;;;;;;;;;;;;14.56;93.94;91871.22;5055961;28;20394;-73
2024/01/18 11:32:35;;;;;;;;;;;;;;;14.22;94.44;91864.94;5054451;28;19925;-73
2024/01/18 11:35:10;;;;;;;;;;;;;;;13.90;95.26;91879.00;5052406;28;19925;-73
2024/01/18 11:37:37;;;;;;;;;;;;;;;13.75;96.60;91890.16;5057065;28;20788;-73
2024/01/18 11:40:06;;;;;;;;;;;;;;;13.76;96.88;91897.59;5054237;28;19920;-72
2024/01/18 11:42:33;;;;;;;;;;;;;;;13.72;97.00;91896.59;5054930;28;19924;-73
2024/01/18 11:45:00;;;;;;;;;;;;;;;13.73;96.76;91903.31;5051225;28;19966;-73
2024/01/18 11:47:45;;;;;;;;;;;;;;;13.74;96.11;91888.56;5051809;28;20401;-73
2024/01/18 11:50:14;;;;;;;;;;;;;;;13.80;96.51;91899.66;5050967;28;19924;-73
2024/01/18 11:52:42;;;;;;;;;;;;;;;13.72;96.35;91895.81;5052397;28;19920;-73
2024/01/18 11:55:10;;;;;;;;;;;;;;;13.65;96.71;91888.34;5055099;28;19927;-73
2024/01/18 11:57:37;;;;;;;;;;;;;;;13.51;97.08;91882.19;5056003;28;19930;-72
2024/01/18 12:00:04;;;;;;;;;;;;;;;13.52;98.47;91881.91;5055617;28;20009;-73
2024/01/18 12:02:31;;;;;;;;;;;;;;;13.51;98.30;91879.59;5053464;28;20496;-73
2024/01/18 12:04:58;;;;;;;;;;;;;;;13.44;96.76;91888.34;5053684;28;19924;-73
2024/01/18 12:07:27;;;;;;;;;;;;;;;13.38;96.86;91894.53;5058321;28;19925;-74
2024/01/18 12:09:54;;;;;;;;;;;;;;;13.32;97.00;91880.88;5058266;28;19924;-73
2024/01/18 12:12:21;;;;;;;;;;;;;;;13.38;97.35;91873.13;5053681;28;19925;-74
2024/01/18 12:14:48;;;;;;;;;;;;;;;13.41;97.10;91868.22;5054601;28;19924;-74
2024/01/18 12:17:16;;;;;;;;;;;;;;;13.37;95.65;91856.88;5053776;28;19924;-73
2024/01/18 12:19:43;;;;;;;;;;;;;;;13.44;96.32;91854.81;5050012;28;19924;-73
2024/01/18 12:22:10;;;;;;;;;;;;;;;13.36;95.81;91839.88;5053449;28;19921;-73
2024/01/18 12:24:39;;;;;;;;;;;;;;;13.42;94.22;91848.38;5053734;28;19921;-73
2024/01/18 12:27:06;;;;;;;;;;;;;;;13.47;94.43;91843.25;5062926;28;19920;-73
2024/01/18 12:29:33;;;;;;;;;;;;;;;13.55;94.23;91847.06;5050080;28;19931;-73
2024/01/18 12:32:00;;;;;;;;;;;;;;;13.58;93.96;91839.59;5050896;28;19964;-74
2024/01/18 12:34:27;;;;;;;;;;;;;;;13.56;93.13;91848.63;5051111;28;19931;-73
2024/01/18 12:36:54;;;;;;;;;;;;;;;13.58;92.98;91841.41;5055125;28;19924;-73
2024/01/18 12:39:21;;;;;;;;;;;;;;;13.60;93.59;91847.06;5048752;28;19933;-74
2024/01/18 12:41:51;;;;;;;;;;;;;;;13.54;92.18;91830.84;5050917;28;19931;-73